createdAt,value
2017-04-13T00:00:51.527Z,27.96
2017-04-13T00:03:03.813Z,27.95
2017-04-13T00:05:16.045Z,27.96
2017-04-13T00:07:28.368Z,27.98
2017-04-13T00:09:40.594Z,27.96
2017-04-13T00:11:52.878Z,27.94
2017-04-13T00:14:05.256Z,27.99
2017-04-13T00:16:17.459Z,27.97
2017-04-13T00:18:29.803Z,27.97
2017-04-13T00:20:37.368Z,27.92
2017-04-13T00:22:47.851Z,27.95
2017-04-13T00:25:00.196Z,27.94
2017-04-13T00:27:12.429Z,27.94
2017-04-13T00:29:19.742Z,27.93
2017-04-13T00:31:32.423Z,27.94
2017-04-13T00:33:39.692Z,27.94
2017-04-13T00:35:52.028Z,27.95
2017-04-13T00:37:59.265Z,27.95
2017-04-13T00:40:11.621Z,27.93
2017-04-13T00:42:23.911Z,27.96
2017-04-13T00:44:36.117Z,28
2017-04-13T00:46:48.323Z,28.03
2017-04-13T00:49:00.551Z,28.05
2017-04-13T00:51:07.888Z,28.1
2017-04-13T00:53:20.244Z,28.06
2017-04-13T00:55:33.100Z,28.06
2017-04-13T00:57:45.663Z,28.07
2017-04-13T00:59:57.967Z,28.08
2017-04-13T01:02:10.318Z,28.08
2017-04-13T01:04:22.571Z,28.08
2017-04-13T01:06:29.894Z,28.05
2017-04-13T01:08:40.453Z,28.04
2017-04-13T01:10:52.806Z,28.01
2017-04-13T01:13:03.412Z,28
2017-04-13T01:15:15.753Z,28.02
2017-04-13T01:17:28.066Z,28.03
2017-04-13T01:19:40.303Z,27.99
2017-04-13T01:21:52.520Z,28
2017-04-13T01:24:04.740Z,28
2017-04-13T01:26:12.089Z,28.03
2017-04-13T01:28:24.342Z,28.04
2017-04-13T01:30:37.218Z,28.05
2017-04-13T01:32:49.681Z,28.05
2017-04-13T01:35:01.971Z,28.07
2017-04-13T01:37:09.291Z,28.08
2017-04-13T01:39:21.524Z,28.12
2017-04-13T01:41:33.813Z,28.09
2017-04-13T01:43:46.834Z,28.08
2017-04-13T01:45:59.160Z,28.06
2017-04-13T01:48:11.432Z,28.07
2017-04-13T01:50:23.620Z,28.07
2017-04-13T01:52:35.813Z,28.08
2017-04-13T01:54:48.078Z,28.08
2017-04-13T01:56:55.317Z,28.07
2017-04-13T01:59:07.539Z,28.1
2017-04-13T02:01:19.735Z,28.07
2017-04-13T02:03:32.121Z,28.11
2017-04-13T02:05:44.741Z,28.11
2017-04-13T02:07:52.276Z,28.11
2017-04-13T02:10:04.518Z,28.14
2017-04-13T02:12:11.721Z,28.11
2017-04-13T02:14:23.991Z,28.11
2017-04-13T02:16:36.187Z,28.09
2017-04-13T02:18:48.502Z,28.14
2017-04-13T02:21:00.739Z,28.11
2017-04-13T02:23:12.972Z,28.09
2017-04-13T02:25:25.335Z,28.1
2017-04-13T02:27:37.649Z,28.13
2017-04-13T02:29:49.935Z,28.11
2017-04-13T02:32:02.126Z,28.1
2017-04-13T02:34:14.495Z,28.14
2017-04-13T02:36:26.827Z,28.13
2017-04-13T02:38:39.031Z,28.12
2017-04-13T02:40:51.337Z,28.18
2017-04-13T02:43:03.830Z,28.17
2017-04-13T02:45:16.303Z,28.14
2017-04-13T02:47:23.704Z,28.16
2017-04-13T02:49:36.727Z,28.19
2017-04-13T02:51:48.948Z,28.16
2017-04-13T02:54:01.133Z,28.18
2017-04-13T02:56:13.405Z,28.17
2017-04-13T02:58:25.659Z,28.17
2017-04-13T03:00:37.818Z,28.18
2017-04-13T03:02:50.130Z,28.18
2017-04-13T03:05:02.457Z,28.18
2017-04-13T03:07:14.724Z,28.25
2017-04-13T03:09:27.103Z,28.2
2017-04-13T03:11:39.320Z,28.21
2017-04-13T03:13:52.007Z,28.25
2017-04-13T03:15:59.355Z,28.22
2017-04-13T03:18:11.703Z,28.24
2017-04-13T03:20:25.554Z,28.25
2017-04-13T03:22:37.882Z,28.27
2017-04-13T03:24:50.185Z,28.28
2017-04-13T03:27:02.492Z,28.3
2017-04-13T03:29:14.789Z,28.31
2017-04-13T03:31:27.083Z,28.3
2017-04-13T03:33:39.290Z,28.37
2017-04-13T03:35:51.570Z,28.33
2017-04-13T03:38:03.817Z,28.35
2017-04-13T03:40:16.114Z,28.35
2017-04-13T03:42:28.396Z,28.44
2017-04-13T03:44:40.705Z,28.33
2017-04-13T03:46:52.966Z,28.33
2017-04-13T03:49:05.247Z,28.39
2017-04-13T03:51:17.452Z,28.36
2017-04-13T03:53:29.878Z,28.34
2017-04-13T03:55:42.550Z,28.34
2017-04-13T03:57:54.879Z,28.38
2017-04-13T04:00:07.237Z,28.38
2017-04-13T04:02:19.446Z,28.38
2017-04-13T04:04:31.750Z,28.4
2017-04-13T04:06:43.950Z,28.4
2017-04-13T04:08:56.310Z,28.38
2017-04-13T04:11:08.612Z,28.4
2017-04-13T04:13:20.806Z,28.4
2017-04-13T04:15:33.063Z,28.43
2017-04-13T04:17:45.309Z,28.41
2017-04-13T04:19:57.632Z,28.39
2017-04-13T04:22:10.048Z,28.42
2017-04-13T04:24:22.268Z,28.44
2017-04-13T04:26:34.552Z,28.43
2017-04-13T04:28:46.953Z,28.46
2017-04-13T04:30:59.189Z,28.49
2017-04-13T04:33:11.838Z,28.5
2017-04-13T04:35:24.116Z,28.46
2017-04-13T04:37:36.299Z,28.49
2017-04-13T04:39:48.748Z,28.47
2017-04-13T04:42:01.025Z,28.53
2017-04-13T04:44:13.441Z,28.46
2017-04-13T04:46:25.642Z,28.48
2017-04-13T04:48:37.865Z,28.39
2017-04-13T04:50:50.029Z,28.47
2017-04-13T04:53:02.357Z,28.45
2017-04-13T04:55:14.493Z,28.39
2017-04-13T04:57:26.771Z,28.41
2017-04-13T04:59:42.721Z,28.44
2017-04-13T05:01:55.990Z,28.44
2017-04-13T05:04:08.378Z,28.38
2017-04-13T05:06:22.309Z,28.41
2017-04-13T05:08:34.623Z,28.4
2017-04-13T05:10:47.117Z,28.41
2017-04-13T05:12:59.450Z,28.44
2017-04-13T05:15:13.365Z,28.38
2017-04-13T05:17:25.517Z,28.39
2017-04-13T05:19:37.862Z,28.37
2017-04-13T05:21:50.112Z,28.43
2017-04-13T05:24:02.302Z,28.32
2017-04-13T05:26:14.634Z,28.28
2017-04-13T05:28:21.945Z,28.25
2017-04-13T05:30:34.184Z,28.27
2017-04-13T05:32:41.437Z,28.54
2017-04-13T05:34:53.721Z,28.36
2017-04-13T05:37:06.064Z,28.28
2017-04-13T05:39:18.711Z,28.29
2017-04-13T05:41:31.126Z,28.38
2017-04-13T05:43:57.774Z,28.21
2017-04-13T05:47:19.186Z,28.1
2017-04-13T05:49:47.292Z,28.1
2017-04-13T05:52:23.852Z,28.14
2017-04-13T05:54:42.671Z,28.13
2017-04-13T05:56:50.014Z,28.13
2017-04-13T05:59:08.278Z,28.14
2017-04-13T06:01:27.856Z,28.11
2017-04-13T06:03:46.211Z,28.15
2017-04-13T06:06:00.308Z,28.16
2017-04-13T06:08:39.299Z,28.2
2017-04-13T06:10:52.684Z,28.36
2017-04-13T06:13:05.787Z,28.28
2017-04-13T06:15:49.158Z,28.26
2017-04-13T06:18:08.416Z,28.25
2017-04-13T06:20:20.599Z,28.33
2017-04-13T06:22:34.042Z,28.27
2017-04-13T06:24:47.406Z,28.23
2017-04-13T06:26:59.805Z,28.31
2017-04-13T06:29:08.774Z,28.33
2017-04-13T06:31:21.698Z,28.43
2017-04-13T06:33:35.050Z,28.42
2017-04-13T06:35:47.556Z,28.5
2017-04-13T06:38:00.470Z,28.67
2017-04-13T06:40:13.604Z,28.77
2017-04-13T06:42:52.168Z,28.71
2017-04-13T06:45:15.909Z,28.8
2017-04-13T06:47:30.302Z,28.79
2017-04-13T06:49:41.415Z,28.85
2017-04-13T06:52:19.782Z,28.87
2017-04-13T06:54:37.627Z,28.98
2017-04-13T06:56:53.661Z,28.9
2017-04-13T06:59:06.547Z,29.01
2017-04-13T07:01:19.596Z,29.01
2017-04-13T07:03:31.997Z,28.96
2017-04-13T07:05:44.760Z,29.01
2017-04-13T07:08:19.664Z,28.98
2017-04-13T07:10:57.434Z,29.03
2017-04-13T07:13:38.895Z,28.93
2017-04-13T07:16:24.276Z,28.94
2017-04-13T07:18:48.510Z,28.95
2017-04-13T07:21:29.341Z,29.04
2017-04-13T07:24:18.501Z,28.84
2017-04-13T07:27:06.693Z,28.84
2017-04-13T07:29:27.268Z,29.06
2017-04-13T07:31:40.099Z,29
2017-04-13T07:33:54.109Z,28.92
2017-04-13T07:36:07.965Z,28.6
2017-04-13T07:38:21.618Z,28.57
2017-04-13T07:40:57.145Z,28.5
2017-04-13T07:43:37.541Z,28.26
2017-04-13T07:46:26.555Z,28.3
2017-04-13T07:48:50.071Z,28.18
2017-04-13T07:51:04.236Z,27.78
2017-04-13T07:53:19.177Z,27.4
2017-04-13T07:55:32.859Z,26.89
2017-04-13T07:57:46.399Z,26.67
2017-04-13T08:00:01.607Z,26.5
2017-04-13T08:02:14.884Z,26.29
2017-04-13T08:04:27.538Z,26.19
2017-04-13T08:06:39.801Z,26.13
2017-04-13T08:08:53.676Z,26.25
2017-04-13T08:11:00.921Z,26.54
2017-04-13T08:13:08.175Z,27.1
2017-04-13T08:15:20.712Z,27.53
2017-04-13T08:17:32.959Z,27.83
2017-04-13T08:19:45.139Z,27.94
2017-04-13T08:21:57.589Z,27.88
2017-04-13T08:24:10.058Z,28.02
2017-04-13T08:26:22.443Z,28.27
2017-04-13T08:28:34.680Z,28.51
2017-04-13T08:30:47.078Z,28.74
2017-04-13T08:32:59.565Z,28.76
2017-04-13T08:35:12.647Z,28.69
2017-04-13T08:37:23.296Z,28.72
2017-04-13T08:39:31.631Z,28.62
2017-04-13T08:41:38.984Z,28.77
2017-04-13T08:43:51.315Z,28.77
2017-04-13T08:46:03.733Z,28.76
2017-04-13T08:48:15.940Z,28.66
2017-04-13T08:50:28.116Z,28.45
2017-04-13T08:52:40.400Z,28.06
2017-04-13T08:54:52.631Z,27.65
2017-04-13T08:57:04.887Z,27.7
2017-04-13T08:59:17.222Z,27.66
2017-04-13T09:01:29.753Z,27.43
2017-04-13T09:03:42.151Z,27.42
2017-04-13T09:05:54.880Z,27.33
2017-04-13T09:08:07.453Z,27.26
2017-04-13T09:10:20.076Z,27.48
2017-04-13T09:12:32.722Z,27.64
2017-04-13T09:14:45.891Z,27.77
2017-04-13T09:16:58.389Z,27.82
2017-04-13T09:19:10.728Z,27.83
2017-04-13T09:21:23.196Z,27.81
2017-04-13T09:23:35.595Z,27.96
2017-04-13T09:25:47.905Z,28.09
2017-04-13T09:28:00.287Z,28
2017-04-13T09:30:07.610Z,27.68
2017-04-13T09:32:19.842Z,27.52
2017-04-13T09:34:32.041Z,27.69
2017-04-13T09:36:44.312Z,27.95
2017-04-13T09:38:56.952Z,28.13
2017-04-13T09:41:10.519Z,28.13
2017-04-13T09:43:23.213Z,28.25
2017-04-13T09:45:35.643Z,28.25
2017-04-13T09:47:48.125Z,27.98
2017-04-13T09:50:00.703Z,27.93
2017-04-13T09:52:13.039Z,27.9
2017-04-13T09:54:25.405Z,27.75
2017-04-13T09:56:37.698Z,27.35
2017-04-13T09:58:50.032Z,27.28
2017-04-13T10:01:02.300Z,27.05
2017-04-13T10:03:14.535Z,26.79
2017-04-13T10:05:27.175Z,26.61
2017-04-13T10:07:39.468Z,26.48
2017-04-13T10:09:51.735Z,26.38
2017-04-13T10:12:04.113Z,26.38
2017-04-13T10:14:16.490Z,26.93
2017-04-13T10:16:45.594Z,27.15
2017-04-13T10:18:59.105Z,27.24
2017-04-13T10:21:11.518Z,27.49
2017-04-13T10:23:23.777Z,27.47
2017-04-13T10:25:35.989Z,27.14
2017-04-13T10:27:48.376Z,26.43
2017-04-13T10:30:09.572Z,26.22
2017-04-13T10:32:39.827Z,26.47
2017-04-13T10:34:55.492Z,27.05
2017-04-13T10:37:18.151Z,27.22
2017-04-13T10:39:34.480Z,27.2
2017-04-13T10:42:04.893Z,26.7
2017-04-13T10:44:23.041Z,26.05
2017-04-13T10:46:37.466Z,25.41
2017-04-13T10:48:50.092Z,25.29
2017-04-13T10:51:06.999Z,25.31
2017-04-13T10:53:26.349Z,25.65
2017-04-13T10:55:59.448Z,26.11
2017-04-13T10:58:56.242Z,26.38
2017-04-13T11:01:54.519Z,25.95
2017-04-13T11:04:52.067Z,25.66
2017-04-13T11:07:45.292Z,25.82
2017-04-13T11:10:45.266Z,25.74
2017-04-13T11:13:45.448Z,25.72
2017-04-13T11:16:44.021Z,26.03
2017-04-13T11:19:40.932Z,25.99
2017-04-13T11:22:38.102Z,25.3
2017-04-13T11:25:27.752Z,24.7
2017-04-13T11:27:35.371Z,24.24
2017-04-13T11:29:48.214Z,23.85
2017-04-13T11:32:01.661Z,23.79
2017-04-13T11:34:14.727Z,23.98
2017-04-13T11:36:27.300Z,24.1
2017-04-13T11:38:39.589Z,24.32
2017-04-13T11:40:51.949Z,24.48
2017-04-13T11:43:04.380Z,24.51
2017-04-13T11:45:11.810Z,24.97
2017-04-13T11:49:29.684Z,25.71
2017-04-13T11:51:41.999Z,26.44
2017-04-13T11:53:49.358Z,26.87
2017-04-13T11:56:01.717Z,27.12
2017-04-13T11:58:14.044Z,27.05
2017-04-13T12:00:26.423Z,26.6
2017-04-13T12:02:38.689Z,26.19
2017-04-13T12:04:51.053Z,25.85
2017-04-13T12:07:03.381Z,25.14
2017-04-13T12:09:15.588Z,24.02
2017-04-13T12:11:29.008Z,23.02
2017-04-13T12:13:41.551Z,21.89
2017-04-13T12:15:48.964Z,21.56
2017-04-13T12:18:01.314Z,21.75
2017-04-13T12:20:13.578Z,22.11
2017-04-13T12:22:25.903Z,20.66
2017-04-13T12:24:38.219Z,22.09
2017-04-13T12:26:50.506Z,23.11
2017-04-13T12:29:02.924Z,24.46
2017-04-13T12:31:15.353Z,23.93
2017-04-13T12:33:27.969Z,23.63
2017-04-13T12:35:40.285Z,24.61
2017-04-13T12:38:21.762Z,24.6
2017-04-13T12:40:36.846Z,24.89
2017-04-13T12:42:49.196Z,25.69
2017-04-13T12:45:01.513Z,26.28
2017-04-13T12:47:14.020Z,26.8
2017-04-13T12:49:26.349Z,27.24
2017-04-13T12:51:38.929Z,27.5
2017-04-13T12:53:46.551Z,27.72
2017-04-13T12:55:58.928Z,27.81
2017-04-13T12:58:11.207Z,27.49
2017-04-13T13:00:23.564Z,26.71
2017-04-13T13:02:36.076Z,26.35
2017-04-13T13:04:48.374Z,26.38
2017-04-13T13:06:55.719Z,25.8
2017-04-13T13:09:07.932Z,25.18
2017-04-13T13:11:20.128Z,25.13
2017-04-13T13:13:32.374Z,24.77
2017-04-13T13:15:44.685Z,24.49
2017-04-13T13:17:52.044Z,24.4
2017-04-13T13:20:04.212Z,23.71
2017-04-13T13:22:16.440Z,23.46
2017-04-13T13:24:28.669Z,24.04
2017-04-13T13:26:41.032Z,24.86
2017-04-13T13:28:53.417Z,24.29
2017-04-13T13:31:05.697Z,24.61
2017-04-13T13:33:17.890Z,25.31
2017-04-13T13:35:30.183Z,25.86
2017-04-13T13:37:42.441Z,26.05
2017-04-13T13:39:54.688Z,25.58
2017-04-13T13:42:06.973Z,25.29
2017-04-13T13:44:19.205Z,23.94
2017-04-13T13:46:31.659Z,23.71
2017-04-13T13:48:44.000Z,24.27
2017-04-13T13:50:56.284Z,24.85
2017-04-13T13:53:08.557Z,24.99
2017-04-13T13:55:20.872Z,24.89
2017-04-13T13:57:33.496Z,24.56
2017-04-13T13:59:45.942Z,24.52
2017-04-13T14:01:58.322Z,24.02
2017-04-13T14:04:10.625Z,23.23
2017-04-13T14:06:22.919Z,23.5
2017-04-13T14:08:35.367Z,24.26
2017-04-13T14:10:47.591Z,24.69
2017-04-13T14:13:00.315Z,24.67
2017-04-13T14:15:12.818Z,25.17
2017-04-13T14:17:25.164Z,25.64
2017-04-13T14:19:37.662Z,25.75
2017-04-13T14:21:49.945Z,25.86
2017-04-13T14:24:02.353Z,25.79
2017-04-13T14:26:14.683Z,25.73
2017-04-13T14:28:27.096Z,25.88
2017-04-13T14:30:34.629Z,25.85
2017-04-13T14:32:46.907Z,25.72
2017-04-13T14:34:59.509Z,25.72
2017-04-13T14:37:11.793Z,26.05
2017-04-13T14:39:24.058Z,26.53
2017-04-13T14:41:36.379Z,26.89
2017-04-13T14:43:48.691Z,27.1
2017-04-13T14:46:01.217Z,26.98
2017-04-13T14:48:13.546Z,26.8
2017-04-13T14:50:25.865Z,26.27
2017-04-13T14:52:38.256Z,25.45
2017-04-13T14:54:50.618Z,24.83
2017-04-13T14:57:02.935Z,24.92
2017-04-13T14:59:15.314Z,25.47
2017-04-13T15:01:27.597Z,26.15
2017-04-13T15:03:39.920Z,26.52
2017-04-13T15:05:52.252Z,26.49
2017-04-13T15:08:04.569Z,26.44
2017-04-13T15:10:18.319Z,26.54
2017-04-13T15:12:32.046Z,26.7
2017-04-13T15:14:44.783Z,26.48
2017-04-13T15:16:59.237Z,26.3
2017-04-13T15:19:08.348Z,26.52
2017-04-13T15:21:22.859Z,26.75
2017-04-13T15:23:36.511Z,26.79
2017-04-13T15:25:50.868Z,26.83
2017-04-13T15:28:05.299Z,26.91
2017-04-13T15:30:19.022Z,26.93
2017-04-13T15:32:33.119Z,26.89
2017-04-13T15:34:47.696Z,26.74
2017-04-13T15:37:01.572Z,26.37
2017-04-13T15:39:15.425Z,26.18
2017-04-13T15:41:35.388Z,26.31
2017-04-13T15:43:48.861Z,26.52
2017-04-13T15:46:04.394Z,26.51
2017-04-13T15:48:13.995Z,26.4
2017-04-13T15:50:27.908Z,26.44
2017-04-13T15:52:41.219Z,26.22
2017-04-13T15:54:57.349Z,25.78
2017-04-13T15:57:12.253Z,25.68
2017-04-13T15:59:25.613Z,25.65
2017-04-13T16:01:40.965Z,25.88
2017-04-13T16:03:55.396Z,26.11
2017-04-13T16:06:08.492Z,26.28
2017-04-13T16:08:20.918Z,26.28
2017-04-13T16:10:33.964Z,26.57
2017-04-13T16:12:46.357Z,26.85
2017-04-13T16:14:58.748Z,27.04
2017-04-13T16:17:11.010Z,27.08
2017-04-13T16:19:23.429Z,27.12
2017-04-13T16:21:35.658Z,27.19
2017-04-13T16:23:48.037Z,27.27
2017-04-13T16:26:00.306Z,27.4
2017-04-13T16:28:13.063Z,27.58
2017-04-13T16:30:25.374Z,27.76
2017-04-13T16:32:37.687Z,27.92
2017-04-13T16:34:49.997Z,28.05
2017-04-13T16:37:02.440Z,28.13
2017-04-13T16:39:14.679Z,28.21
2017-04-13T16:41:27.143Z,28.31
2017-04-13T16:43:39.564Z,28.4
2017-04-13T16:45:52.091Z,28.48
2017-04-13T16:48:04.293Z,28.53
2017-04-13T16:50:16.614Z,28.56
2017-04-13T16:52:23.956Z,28.63
2017-04-13T16:54:36.567Z,28.71
2017-04-13T16:56:48.938Z,28.74
2017-04-13T16:59:01.333Z,28.79
2017-04-13T17:01:13.747Z,28.87
2017-04-13T17:03:21.222Z,28.98
2017-04-13T17:05:33.582Z,29.05
2017-04-13T17:08:16.796Z,29.12
2017-04-13T17:11:10.629Z,29.18
2017-04-13T17:14:11.202Z,29.26
2017-04-13T17:17:04.095Z,29.33
2017-04-13T17:20:11.281Z,29.4
2017-04-13T17:23:15.804Z,29.47
2017-04-13T17:26:19.177Z,29.56
2017-04-13T17:29:24.249Z,29.61
2017-04-13T17:32:29.311Z,29.62
2017-04-13T17:35:23.797Z,29.65
2017-04-13T17:38:23.071Z,29.68
2017-04-13T17:41:23.951Z,29.75
2017-04-13T17:44:22.227Z,29.88
2017-04-13T17:47:24.379Z,29.99
2017-04-13T17:50:16.210Z,30.13
2017-04-13T17:52:32.757Z,30.22
2017-04-13T17:54:45.200Z,30.33
2017-04-13T17:56:57.633Z,30.42
2017-04-13T17:59:10.572Z,30.48
2017-04-13T18:01:22.900Z,30.47
2017-04-13T18:03:35.192Z,30.51
2017-04-13T18:05:47.502Z,30.56
2017-04-13T18:07:54.919Z,30.6
2017-04-13T18:10:05.543Z,30.63
2017-04-13T18:12:18.715Z,30.67
2017-04-13T18:14:32.554Z,30.67
2017-04-13T18:16:45.765Z,30.7
2017-04-13T18:18:58.267Z,30.76
2017-04-13T18:21:10.657Z,30.84
2017-04-13T18:24:20.327Z,30.91
2017-04-13T18:26:33.386Z,30.91
2017-04-13T18:28:46.291Z,30.87
2017-04-13T18:31:27.081Z,30.83
2017-04-13T18:34:20.121Z,30.84
2017-04-13T18:37:08.888Z,30.86
2017-04-13T18:39:56.810Z,30.9
2017-04-13T18:42:29.482Z,30.94
2017-04-13T18:44:44.595Z,30.96
2017-04-13T18:46:58.163Z,30.97
2017-04-13T18:49:12.546Z,30.94
2017-04-13T18:51:45.614Z,30.94
2017-04-13T18:53:58.003Z,30.92
2017-04-13T18:56:10.259Z,30.88
2017-04-13T18:58:17.679Z,30.88
2017-04-13T19:00:35.508Z,30.9
2017-04-13T19:02:47.818Z,30.92
2017-04-13T19:05:01.463Z,30.95
2017-04-13T19:07:13.777Z,30.97
2017-04-13T19:09:26.094Z,30.97
2017-04-13T19:11:33.461Z,30.93
2017-04-13T19:13:45.830Z,30.9
2017-04-13T19:15:58.036Z,30.88
2017-04-13T19:18:10.449Z,30.87
2017-04-13T19:20:22.724Z,30.87
2017-04-13T19:22:35.130Z,30.9
2017-04-13T19:24:48.010Z,30.84
2017-04-13T19:27:01.022Z,30.8
2017-04-13T19:29:13.511Z,30.81
2017-04-13T19:31:28.480Z,30.75
2017-04-13T19:33:40.865Z,30.75
2017-04-13T19:35:53.287Z,30.75
2017-04-13T19:38:00.727Z,30.72
2017-04-13T19:40:08.118Z,30.72
2017-04-13T19:42:20.629Z,30.71
2017-04-13T19:44:32.982Z,30.7
2017-04-13T19:46:45.299Z,30.67
2017-04-13T19:48:57.602Z,30.67
2017-04-13T19:51:09.899Z,30.7
2017-04-13T19:53:22.246Z,30.71
2017-04-13T19:55:29.710Z,30.7
2017-04-13T19:57:42.128Z,30.7
2017-04-13T19:59:54.562Z,30.71
2017-04-13T20:02:06.948Z,30.72
2017-04-13T20:04:19.410Z,30.73
2017-04-13T20:06:31.810Z,30.74
2017-04-13T20:08:44.220Z,30.76
2017-04-13T20:10:56.645Z,30.76
2017-04-13T20:13:08.839Z,30.74
2017-04-13T20:15:22.201Z,30.72
2017-04-13T20:17:34.519Z,30.69
2017-04-13T20:19:48.153Z,30.68
2017-04-13T20:22:01.787Z,30.7
2017-04-13T20:24:15.700Z,30.72
2017-04-13T20:26:28.852Z,30.76
2017-04-13T20:28:41.580Z,30.78
2017-04-13T20:30:50.024Z,30.81
2017-04-13T20:33:03.488Z,30.79
2017-04-13T20:35:16.254Z,30.78
2017-04-13T20:37:30.014Z,30.79
2017-04-13T20:39:44.827Z,30.77
2017-04-13T20:41:59.421Z,30.72
2017-04-13T20:44:12.985Z,30.71
2017-04-13T20:46:26.163Z,30.68
2017-04-13T20:48:59.705Z,30.65
2017-04-13T20:51:13.714Z,30.67
2017-04-13T20:53:26.364Z,30.67
2017-04-13T20:55:38.649Z,30.68
2017-04-13T20:57:52.224Z,30.69
2017-04-13T21:00:05.016Z,30.66
2017-04-13T21:02:16.778Z,30.67
2017-04-13T21:04:25.694Z,30.63
2017-04-13T21:06:39.463Z,30.59
2017-04-13T21:08:52.738Z,30.54
2017-04-13T21:11:05.888Z,30.54
2017-04-13T21:13:18.947Z,30.55
2017-04-13T21:15:31.930Z,30.59
2017-04-13T21:17:45.498Z,30.51
2017-04-13T21:19:58.543Z,30.42
2017-04-13T21:22:11.976Z,30.37
2017-04-13T21:24:24.875Z,30.33
2017-04-13T21:26:38.383Z,30.28
2017-04-13T21:28:52.006Z,30.23
2017-04-13T21:31:00.286Z,30.19
2017-04-13T21:33:13.206Z,30.16
2017-04-13T21:35:26.547Z,30.16
2017-04-13T21:37:40.215Z,30.18
2017-04-13T21:39:53.029Z,30.2
2017-04-13T21:42:05.787Z,30.17
2017-04-13T21:44:18.432Z,30.16
2017-04-13T21:46:31.479Z,30.15
2017-04-13T21:48:44.394Z,30.14
2017-04-13T21:50:57.643Z,30.14
2017-04-13T21:53:10.861Z,30.14
2017-04-13T21:55:26.885Z,30.17
2017-04-13T21:57:42.632Z,30.16
2017-04-13T21:59:56.233Z,30.17
2017-04-13T22:02:09.005Z,30.18
2017-04-13T22:04:22.513Z,30.17
2017-04-13T22:06:26.129Z,30.19
2017-04-13T22:08:39.045Z,30.2
2017-04-13T22:10:52.161Z,30.19
2017-04-13T22:13:05.251Z,30.19
2017-04-13T22:15:18.300Z,30.23
2017-04-13T22:17:32.207Z,30.23
2017-04-13T22:19:45.529Z,30.26
2017-04-13T22:21:59.100Z,30.29
2017-04-13T22:24:12.018Z,30.3
2017-04-13T22:26:24.396Z,30.31
2017-04-13T22:28:36.707Z,30.34
2017-04-13T22:30:49.000Z,30.38
2017-04-13T22:33:01.271Z,30.42
2017-04-13T22:35:14.561Z,30.44
2017-04-13T22:37:26.898Z,30.45
2017-04-13T22:39:39.377Z,30.46
2017-04-13T22:41:51.803Z,30.45
2017-04-13T22:44:04.167Z,30.45
2017-04-13T22:46:16.430Z,30.42
2017-04-13T22:48:28.786Z,30.41
2017-04-13T22:50:41.159Z,30.42
2017-04-13T22:52:53.362Z,30.4
2017-04-13T22:55:00.692Z,30.41
2017-04-13T22:57:13.001Z,30.4
2017-04-13T22:59:25.246Z,30.39
2017-04-13T23:01:37.560Z,30.42
2017-04-13T23:03:49.934Z,30.47
2017-04-13T23:05:57.157Z,30.49
2017-04-13T23:08:09.544Z,30.51
2017-04-13T23:10:21.818Z,30.49
2017-04-13T23:12:34.240Z,30.47
2017-04-13T23:14:41.460Z,30.52
2017-04-13T23:16:53.717Z,30.53
2017-04-13T23:19:05.948Z,30.52
2017-04-13T23:21:18.275Z,30.53
2017-04-13T23:23:30.452Z,30.54
2017-04-13T23:25:42.775Z,30.56
2017-04-13T23:27:55.121Z,30.55
2017-04-13T23:30:07.364Z,30.56
2017-04-13T23:32:19.628Z,30.56
2017-04-13T23:34:26.981Z,30.55
2017-04-13T23:36:39.132Z,30.55
2017-04-13T23:38:46.450Z,30.55
2017-04-13T23:40:58.706Z,30.57
2017-04-13T23:43:11.042Z,30.6
2017-04-13T23:45:23.336Z,30.6
2017-04-13T23:47:35.656Z,30.63
2017-04-13T23:49:47.966Z,30.64
2017-04-13T23:52:00.214Z,30.62
2017-04-13T23:54:12.512Z,30.63
2017-04-13T23:56:24.844Z,30.63
2017-04-13T23:58:37.080Z,30.63
